Time;durP1;ratioP1;P1;durP2;ratioP2;P2;SDS_P1;SDS_P2;PMS_P1;PMS_P2;Temp;Humidity;BMP_temperature;BMP_pressure;BME280_temperature;BME280_humidity;BME280_pressure;Samples;Min_cycle;Max_cycle;Signal;HPM_P1;HPM_P2
2023/03/22 00:02:06;;;;;;;72.73;40.80;;;;;;;9.32;100.00;100446.67;4868501;59;1142988;-74
2023/03/22 00:07:11;;;;;;;65.87;40.53;;;;;;;9.33;100.00;100436.45;4927909;57;1143139;-68
2023/03/22 00:12:17;;;;;;;66.37;39.47;;;;;;;9.30;100.00;100432.27;4927767;58;1142872;-68
2023/03/22 00:17:24;;;;;;;68.93;39.57;;;;;;;9.30;100.00;100429.63;4947216;58;1143112;-68
2023/03/22 00:22:30;;;;;;;65.30;38.27;;;;;;;9.30;100.00;100411.15;4979538;56;1181334;-71
2023/03/22 00:27:37;;;;;;;69.12;40.63;;;;;;;9.30;100.00;100411.15;4993241;56;1250229;-70
2023/03/22 00:32:44;;;;;;;68.52;36.98;;;;;;;9.28;100.00;100400.34;4849983;58;1143247;-71
2023/03/22 00:37:51;;;;;;;62.83;35.75;;;;;;;9.30;100.00;100397.11;4933970;57;1142920;-69
2023/03/22 00:42:57;;;;;;;63.40;39.87;;;;;;;9.28;100.00;100397.22;4845547;58;1142947;-72
2023/03/22 00:48:02;;;;;;;64.17;36.43;;;;;;;9.27;100.00;100392.90;4899012;58;1142882;-72
2023/03/22 00:53:08;;;;;;;64.53;35.43;;;;;;;9.26;100.00;100383.77;4946678;57;1142816;-70
2023/03/22 00:58:15;;;;;;;64.33;38.67;;;;;;;9.26;100.00;100378.02;4935575;57;1143064;-72
2023/03/22 01:03:23;;;;;;;58.07;35.03;;;;;;;9.25;100.00;100378.12;5008604;57;1142996;-71
2023/03/22 01:08:37;;;;;;;62.13;37.60;;;;;;;9.24;100.00;100380.40;4945352;58;1142988;-73
2023/03/22 01:13:40;;;;;;;61.63;35.08;;;;;;;9.26;100.00;100370.58;5020815;57;1142881;-69
2023/03/22 01:18:45;;;;;;;63.20;36.35;;;;;;;9.26;100.00;100365.30;5046947;56;1143006;-71
2023/03/22 01:23:51;;;;;;;60.37;36.20;;;;;;;9.23;100.00;100361.09;5071224;56;1143039;-75
2023/03/22 01:28:58;;;;;;;59.73;37.07;;;;;;;9.20;100.00;100349.44;5114446;56;1250647;-69
2023/03/22 01:34:03;;;;;;;64.80;35.30;;;;;;;9.25;100.00;100341.18;5096386;56;1143042;-68
2023/03/22 01:39:09;;;;;;;58.50;34.30;;;;;;;9.22;100.00;100338.29;5096222;56;1143162;-73
2023/03/22 01:44:22;;;;;;;59.38;35.30;;;;;;;9.18;100.00;100332.87;5089626;56;1142935;-72
2023/03/22 01:49:33;;;;;;;59.17;34.60;;;;;;;9.18;100.00;100330.23;5062994;56;1143303;-72
2023/03/22 01:54:46;;;;;;;61.47;36.07;;;;;;;9.15;100.00;100326.53;4990212;57;1142990;-69
2023/03/22 02:00:14;;;;;;;70.60;38.53;;;;;;;9.16;100.00;100322.45;5045863;56;1142939;-69
2023/03/22 02:05:26;;;;;;;56.50;34.73;;;;;;;9.17;100.00;100314.03;5051328;56;1142903;-70
2023/03/22 02:10:32;;;;;;;59.77;35.90;;;;;;;9.17;100.00;100309.59;5042088;56;1143018;-73
2023/03/22 02:15:54;;;;;;;60.07;37.00;;;;;;;9.16;100.00;100306.62;5036961;56;1143019;-70
2023/03/22 02:21:47;;;;;;;61.27;37.10;;;;;;;9.17;100.00;100303.48;4978484;57;1143069;-73
2023/03/22 02:27:45;;;;;;;64.87;39.65;;;;;;;9.15;100.00;100304.10;5012855;57;1143019;-74
2023/03/22 02:33:10;;;;;;;72.10;40.95;;;;;;;9.10;100.00;100283.81;5066624;56;1143009;-73
2023/03/22 02:39:00;;;;;;;61.23;36.63;;;;;;;9.09;100.00;100283.44;5086150;56;1143131;-74
2023/03/22 02:44:43;;;;;;;59.07;35.17;;;;;;;9.08;100.00;100285.72;4931616;58;1142912;-70
2023/03/22 02:50:09;;;;;;;56.10;34.73;;;;;;;9.07;100.00;100282.71;5028315;56;1143008;-66
2023/03/22 02:55:28;;;;;;;58.57;36.23;;;;;;;9.06;100.00;100288.47;4999865;57;1142991;-68
2023/03/22 03:00:37;;;;;;;63.07;37.60;;;;;;;9.01;100.00;100276.09;5025950;56;1143020;-69
2023/03/22 03:05:47;;;;;;;54.20;32.37;;;;;;;8.93;100.00;100277.63;4992162;57;1142995;-71
2023/03/22 03:10:55;;;;;;;55.23;34.53;;;;;;;8.92;100.00;100283.86;4983150;57;1142977;-69
2023/03/22 03:16:06;;;;;;;57.70;36.57;;;;;;;8.92;100.00;100278.11;5029641;57;1142970;-73
2023/03/22 03:21:16;;;;;;;65.37;36.93;;;;;;;8.88;100.00;100274.48;5003861;57;1188384;-75
2023/03/22 03:26:50;;;;;;;63.17;35.47;;;;;;;8.83;100.00;100276.64;4983652;57;1241053;-70
2023/03/22 03:32:16;;;;;;;;;;;;;;;8.75;100.00;100283.31;5012787;57;1143133;-74
2023/03/22 03:37:29;;;;;;;57.63;36.27;;;;;;;8.74;100.00;100287.38;5036992;56;1015985;-74
2023/03/22 03:42:41;;;;;;;54.20;33.63;;;;;;;8.68;100.00;100282.57;5039694;56;1182206;-71
2023/03/22 03:47:55;;;;;;;60.03;37.15;;;;;;;8.63;100.00;100280.27;5059665;56;1250989;-71
2023/03/22 03:53:00;;;;;;;63.80;36.17;;;;;;;8.59;100.00;100281.91;5024867;57;1243163;-68
2023/03/22 03:58:08;;;;;;;59.63;36.90;;;;;;;8.54;100.00;100282.74;5058086;56;1142909;-73
2023/03/22 04:03:15;;;;;;;53.83;33.27;;;;;;;8.54;100.00;100278.31;4864708;58;1259147;-71
2023/03/22 04:08:38;;;;;;;58.73;37.27;;;;;;;8.50;100.00;100272.89;4818455;58;1142997;-70
2023/03/22 04:13:44;;;;;;;58.77;35.87;;;;;;;8.49;100.00;100261.14;4820559;58;1261223;-70
2023/03/22 04:18:52;;;;;;;62.73;38.07;;;;;;;8.52;100.00;100245.95;4942071;57;1142949;-69
2023/03/22 04:23:58;;;;;;;60.92;36.13;;;;;;;8.52;100.00;100257.81;4980140;56;1142953;-70
2023/03/22 04:29:05;;;;;;;56.00;34.03;;;;;;;8.53;100.00;100250.75;4980612;57;1146221;-73
2023/03/22 04:34:12;;;;;;;54.53;36.03;;;;;;;8.58;100.00;100261.77;4973764;56;1143089;-69
2023/03/22 04:39:28;;;;;;;62.60;37.67;;;;;;;8.60;100.00;100265.14;4843625;59;1143189;-69
2023/03/22 04:44:36;;;;;;;58.83;36.53;;;;;;;8.60;100.00;100262.50;4801239;59;1143132;-66
2023/03/22 04:49:42;;;;;;;62.50;36.43;;;;;;;8.61;100.00;100255.80;4810417;59;1143294;-70
2023/03/22 04:54:49;;;;;;;60.38;35.23;;;;;;;8.60;100.00;100253.28;4722571;61;1143105;-72
2023/03/22 04:59:56;;;;;;;56.70;35.83;;;;;;;8.60;100.00;100248.00;4690966;60;1143176;-71
2023/03/22 05:05:01;;;;;;;61.88;37.70;;;;;;;8.60;100.00;100244.05;4767880;60;1143209;-70
2023/03/22 05:10:10;;;;;;;57.93;37.50;;;;;;;8.64;100.00;100246.84;4785286;60;1143200;-73
2023/03/22 05:15:16;;;;;;;50.60;32.77;;;;;;;8.65;100.00;100247.20;4773472;58;1143051;-70
2023/03/22 05:20:23;;;;;;;56.57;33.97;;;;;;;8.64;100.00;100241.56;4899927;58;1143005;-70
2023/03/22 05:25:31;;;;;;;54.73;35.20;;;;;;;8.62;100.00;100246.95;4919665;57;1143073;-67
2023/03/22 05:30:37;;;;;;;60.80;38.57;;;;;;;8.62;100.00;100244.31;4950282;56;1142995;-72
2023/03/22 05:35:45;;;;;;;59.53;35.67;;;;;;;8.63;100.00;100254.37;4900190;58;1143111;-70
2023/03/22 05:40:50;;;;;;;61.80;38.65;;;;;;;8.61;100.00;100249.69;4822497;59;1143073;-73
2023/03/22 05:45:57;;;;;;;61.73;38.00;;;;;;;8.60;100.00;100243.58;4841226;59;1143128;-72
2023/03/22 05:51:18;;;;;;;;;;;;;;;8.61;100.00;100241.78;4881652;58;1143045;-68
2023/03/22 05:56:25;;;;;;;61.57;36.33;;;;;;;8.61;100.00;100241.31;4836422;59;976216;-69
2023/03/22 06:01:33;;;;;;;55.57;33.53;;;;;;;8.62;100.00;100249.58;4920394;58;1140818;-70
2023/03/22 06:06:43;;;;;;;49.27;28.80;;;;;;;8.65;100.00;100255.11;4936044;58;1142970;-72
2023/03/22 06:11:51;;;;;;;57.48;33.58;;;;;;;8.67;100.00;100257.16;4989546;57;1143189;-69
2023/03/22 06:16:57;;;;;;;48.30;28.63;;;;;;;8.68;100.00;100256.20;5003645;57;1143381;-69
2023/03/22 06:22:03;;;;;;;60.17;37.93;;;;;;;8.66;100.00;100257.64;5059334;56;1142985;-67
2023/03/22 06:27:10;;;;;;;47.53;28.77;;;;;;;8.68;100.00;100259.69;5031156;56;1143066;-71
2023/03/22 06:32:17;;;;;;;46.28;27.40;;;;;;;8.69;100.00;100255.26;4872090;59;1142991;-69
2023/03/22 06:37:24;;;;;;;45.50;28.90;;;;;;;8.69;100.00;100251.30;4853294;59;1143008;-72
2023/03/22 06:42:32;;;;;;;45.10;27.30;;;;;;;8.72;100.00;100268.19;4853341;59;1143206;-71
2023/03/22 06:47:40;;;;;;;53.37;33.57;;;;;;;8.72;100.00;100263.75;4869074;58;1143017;-69
2023/03/22 06:52:48;;;;;;;52.30;32.73;;;;;;;8.76;100.00;100267.02;4949122;58;1143142;-67
2023/03/22 06:57:54;;;;;;;66.47;42.97;;;;;;;8.81;100.00;100261.77;4931460;58;1142948;-69
2023/03/22 07:03:00;;;;;;;47.90;29.77;;;;;;;8.87;100.00;100261.77;5066359;56;1142823;-70
2023/03/22 07:08:11;;;;;;;54.40;34.00;;;;;;;8.90;100.00;100268.63;5094748;56;1143066;-67
2023/03/22 07:13:18;;;;;;;58.17;35.40;;;;;;;8.93;100.00;100278.95;5096478;56;1143019;-68
2023/03/22 07:18:25;;;;;;;56.30;32.80;;;;;;;8.95;100.00;100274.41;5096739;56;1143354;-68
2023/03/22 07:23:31;;;;;;;58.70;37.43;;;;;;;8.96;100.00;100271.66;4970724;58;1143128;-66
2023/03/22 07:28:40;;;;;;;43.73;25.87;;;;;;;9.02;100.00;100263.73;5096584;56;1143020;-74
2023/03/22 07:33:47;;;;;;;48.70;28.50;;;;;;;9.02;100.00;100263.73;5096808;56;1142995;-71
2023/03/22 07:38:54;;;;;;;46.43;29.23;;;;;;;9.10;100.00;100269.30;5097238;56;1143149;-69
2023/03/22 07:44:01;;;;;;;43.50;27.17;;;;;;;9.16;100.00;100263.57;5088831;56;1142987;-71
2023/03/22 07:49:07;;;;;;;39.35;25.77;;;;;;;9.21;100.00;100261.41;5069832;56;1142964;-70
2023/03/22 07:54:33;;;;;;;31.20;19.80;;;;;;;9.29;100.00;100251.13;4925555;57;1142877;-72
2023/03/22 07:59:38;;;;;;;30.43;20.67;;;;;;;9.37;100.00;100251.84;4860963;58;1143038;-66
2023/03/22 08:04:45;;;;;;;34.23;25.23;;;;;;;9.44;100.00;100259.19;4854248;57;1142941;-70
2023/03/22 08:09:53;;;;;;;38.00;24.96;;;;;;;9.47;100.00;100254.95;4961060;57;1142932;-71
2023/03/22 08:15:00;;;;;;;32.60;20.10;;;;;;;9.53;100.00;100261.09;4973702;57;1143056;-67
2023/03/22 08:20:08;;;;;;;25.48;17.48;;;;;;;9.57;100.00;100257.75;4928683;57;1143009;-70
2023/03/22 08:25:15;;;;;;;24.30;15.70;;;;;;;9.61;100.00;100253.92;4877868;58;1142916;-71
2023/03/22 08:30:22;;;;;;;21.63;15.43;;;;;;;9.72;100.00;100251.27;4925743;57;1142881;-73
2023/03/22 08:35:28;;;;;;;31.27;20.60;;;;;;;9.87;100.00;100240.83;5002077;57;1142906;-74
2023/03/22 08:40:34;;;;;;;30.53;20.17;;;;;;;9.98;100.00;100242.61;5013109;57;1142908;-79
2023/03/22 08:45:41;;;;;;;32.23;19.98;;;;;;;10.09;100.00;100245.70;4892248;57;1142971;-77
2023/03/22 08:50:49;;;;;;;33.30;22.33;;;;;;;10.13;100.00;100241.38;4974603;57;1145088;-77
2023/03/22 08:56:00;;;;;;;29.30;18.90;;;;;;;10.17;100.00;100239.34;4915588;58;1146066;-77
2023/03/22 09:01:20;;;;;;;33.70;19.57;;;;;;;10.26;100.00;100236.45;4926558;58;1144919;-83
2023/03/22 09:06:28;;;;;;;26.52;19.23;;;;;;;10.36;100.00;100226.84;4946370;58;1145242;-79
2023/03/22 09:11:36;;;;;;;24.20;17.53;;;;;;;10.48;100.00;100229.80;4917737;58;1145128;-81
2023/03/22 09:16:41;;;;;;;24.43;17.67;;;;;;;10.58;100.00;100226.75;4871335;58;1145063;-78
2023/03/22 09:21:47;;;;;;;26.10;17.00;;;;;;;10.63;100.00;100227.22;4930693;58;1145352;-79
2023/03/22 09:26:57;;;;;;;25.90;16.30;;;;;;;10.69;100.00;100224.56;4903781;58;1145093;-75
2023/03/22 09:32:02;;;;;;;28.98;20.85;;;;;;;10.72;100.00;100227.77;4833197;58;1145099;-79
2023/03/22 09:37:11;;;;;;;29.35;18.73;;;;;;;10.74;100.00;100227.16;4950761;57;1145149;-80
2023/03/22 09:42:36;;;;;;;27.57;17.93;;;;;;;10.79;100.00;100227.63;4969872;57;1145114;-81
2023/03/22 09:47:52;;;;;;;25.33;16.17;;;;;;;10.92;100.00;100219.02;4957412;57;1145516;-79
2023/03/22 09:52:59;;;;;;;23.52;17.92;;;;;;;11.04;100.00;100222.44;4967877;57;1145008;-75
2023/03/22 09:58:15;;;;;;;22.58;16.73;;;;;;;11.08;100.00;100217.25;5086302;56;1144945;-79
2023/03/22 10:04:04;;;;;;;21.27;14.87;;;;;;;11.13;100.00;100210.25;4985518;57;1144926;-82
2023/03/22 10:09:29;;;;;;;21.93;16.42;;;;;;;11.14;100.00;100210.61;4983251;57;1145134;-80
2023/03/22 10:14:41;;;;;;;19.13;14.43;;;;;;;11.16;100.00;100203.35;5002144;57;1145431;-77
2023/03/22 10:20:08;;;;;;;23.95;16.77;;;;;;;11.24;100.00;100199.58;5027752;57;1145229;-79
2023/03/22 10:25:17;;;;;;;20.93;14.67;;;;;;;11.41;100.00;100189.71;5029141;57;1145030;-78
2023/03/22 10:30:30;;;;;;;25.60;13.60;;;;;;;11.61;100.00;100195.42;4983325;57;1145157;-84
2023/03/22 10:35:37;;;;;;;15.60;11.47;;;;;;;11.83;100.00;100191.78;4983048;57;1145085;-78
2023/03/22 10:40:44;;;;;;;18.37;13.47;;;;;;;11.92;100.00;100200.72;4989590;57;1145053;-74
2023/03/22 10:45:54;;;;;;;23.23;18.17;;;;;;;12.02;100.00;100196.30;5032214;57;1145226;-78
2023/03/22 10:51:02;;;;;;;25.20;14.90;;;;;;;12.07;100.00;100198.03;4999728;57;1145261;-80
2023/03/22 10:56:18;;;;;;;28.10;16.63;;;;;;;12.08;100.00;100197.55;5028839;57;1154467;-79
2023/03/22 11:01:41;;;;;;;18.15;13.03;;;;;;;12.06;100.00;100191.09;5003634;57;1145044;-79
2023/03/22 11:06:51;;;;;;;16.00;11.63;;;;;;;12.06;100.00;100188.92;4983452;57;1145014;-74
2023/03/22 11:12:01;;;;;;;15.50;11.30;;;;;;;12.05;100.00;100191.22;5019249;56;1154527;-77
2023/03/22 11:17:13;;;;;;;16.00;11.90;;;;;;;12.08;100.00;100192.25;5013366;56;1145093;-79
2023/03/22 11:22:32;;;;;;;13.70;10.63;;;;;;;12.12;100.00;100193.66;5022462;57;1145209;-74
2023/03/22 11:27:39;;;;;;;17.17;11.77;;;;;;;12.16;100.00;100189.28;5063327;56;1144936;-76
2023/03/22 11:32:44;;;;;;;13.20;9.93;;;;;;;12.22;100.00;100182.61;5044448;56;1144983;-75
2023/03/22 11:37:55;;;;;;;16.40;10.73;;;;;;;12.40;100.00;100169.47;4932322;57;1142914;-80
2023/03/22 11:43:28;;;;;;;16.02;12.68;;;;;;;12.53;100.00;100164.72;4951204;58;1145256;-82
2023/03/22 11:48:35;;;;;;;19.17;12.03;;;;;;;12.64;100.00;100161.45;4986711;57;1145025;-76
2023/03/22 11:53:47;;;;;;;18.10;10.63;;;;;;;12.77;100.00;100170.45;5066619;56;1145197;-79
2023/03/22 11:59:08;;;;;;;17.37;11.93;;;;;;;12.87;100.00;100155.34;5067326;56;1145196;-79
2023/03/22 12:04:21;;;;;;;13.55;9.35;;;;;;;12.96;100.00;100149.68;5004813;56;1145023;-80
2023/03/22 12:09:55;;;;;;;15.47;11.47;;;;;;;13.07;100.00;100146.02;4983907;57;1142944;-75
2023/03/22 12:15:17;;;;;;;21.33;12.30;;;;;;;13.14;100.00;100148.45;5002694;57;1152057;-71
2023/03/22 12:20:41;;;;;;;14.17;11.00;;;;;;;13.11;100.00;100143.42;5088825;56;1145022;-82
2023/03/22 12:26:03;;;;;;;14.90;11.35;;;;;;;13.11;100.00;100143.42;5096567;56;1145183;-81
2023/03/22 12:31:13;;;;;;;12.75;10.60;;;;;;;13.12;100.00;100141.95;5048414;56;1145180;-78
2023/03/22 12:36:35;;;;;;;14.93;10.97;;;;;;;13.25;100.00;100128.37;5070406;56;1145073;-78
2023/03/22 12:41:47;;;;;;;14.40;10.73;;;;;;;13.35;100.00;100130.50;5086580;56;1145158;-79
2023/03/22 12:47:03;;;;;;;12.17;9.60;;;;;;;13.43;100.00;100128.45;5033019;57;1144922;-73
2023/03/22 12:52:34;;;;;;;15.67;12.00;;;;;;;13.47;100.00;100126.66;5018354;57;1143102;-78
2023/03/22 12:57:40;;;;;;;11.90;9.33;;;;;;;13.46;100.00;100114.85;4869238;58;1145073;-79
2023/03/22 13:03:07;;;;;;;17.30;10.00;;;;;;;13.47;100.00;100106.73;4933934;58;1143001;-76
2023/03/22 13:08:13;;;;;;;13.87;9.80;;;;;;;13.48;100.00;100105.75;5061151;56;1144990;-76
2023/03/22 13:13:29;;;;;;;11.53;9.53;;;;;;;13.52;100.00;100091.69;5077377;56;1142919;-76
2023/03/22 13:18:51;;;;;;;13.20;10.03;;;;;;;13.57;100.00;100090.27;5016292;56;1143101;-81
2023/03/22 13:24:16;;;;;;;10.87;8.40;;;;;;;13.61;100.00;100083.66;5071971;56;1145192;-78
2023/03/22 13:29:36;;;;;;;8.93;8.00;;;;;;;13.69;100.00;100074.95;5082819;56;1143158;-74
2023/03/22 13:34:51;;;;;;;11.20;7.83;;;;;;;13.78;100.00;100063.90;4925353;57;1140995;-76
2023/03/22 13:40:00;;;;;;;36.20;21.00;;;;;;;13.85;100.00;100055.19;4915751;58;1143003;-80
2023/03/22 13:45:11;;;;;;;15.85;10.23;;;;;;;13.92;100.00;100044.27;4878397;58;1145039;-77
2023/03/22 13:50:26;;;;;;;11.22;8.53;;;;;;;14.00;100.00;100041.70;5065355;56;1145087;-77
2023/03/22 13:55:55;;;;;;;28.90;15.27;;;;;;;14.09;100.00;100034.13;5107915;56;1143011;-77
2023/03/22 14:01:01;;;;;;;11.63;7.13;;;;;;;14.30;100.00;100025.83;5075527;56;1145221;-79
2023/03/22 14:06:17;;;;;;;11.28;7.28;;;;;;;14.62;100.00;100021.26;5096192;56;1143116;-76
2023/03/22 14:11:39;;;;;;;11.07;7.13;;;;;;;14.83;100.00;100017.36;5116716;56;1142869;-78
2023/03/22 14:17:12;;;;;;;12.93;6.13;;;;;;;14.95;100.00;100014.78;5048417;56;1142920;-81
2023/03/22 14:22:31;;;;;;;6.40;5.27;;;;;;;14.90;100.00;100013.92;5018616;56;1143053;-78
2023/03/22 14:27:37;;;;;;;31.97;18.63;;;;;;;14.90;100.00;100007.77;5082652;56;1141021;-77
2023/03/22 14:32:48;;;;;;;12.10;6.93;;;;;;;15.00;100.00;100007.97;5081594;56;1144916;-83
2023/03/22 14:37:54;;;;;;;12.67;6.73;;;;;;;15.08;100.00;99998.70;5018467;56;1142915;-76
2023/03/22 14:43:23;;;;;;;6.67;5.37;;;;;;;15.13;100.00;100002.19;4952836;58;1141062;-81
2023/03/22 14:48:35;;;;;;;8.03;6.13;;;;;;;15.14;100.00;100006.02;4863119;58;1140876;-82
2023/03/22 14:53:42;;;;;;;10.83;6.27;;;;;;;15.08;100.00;100006.69;5096398;56;1140774;-76
2023/03/22 14:58:51;;;;;;;7.37;6.27;;;;;;;15.04;100.00;99994.67;5096380;56;1142864;-75
2023/03/22 15:04:01;;;;;;;10.00;6.70;;;;;;;14.93;100.00;99988.81;5116463;56;1138814;-78
2023/03/22 15:09:12;;;;;;;7.50;5.28;;;;;;;14.84;100.00;99981.76;5096543;56;1140835;-79
2023/03/22 15:14:18;;;;;;;8.28;5.55;;;;;;;14.81;100.00;99983.44;5089835;56;1138722;-77
2023/03/22 15:19:25;;;;;;;8.70;5.62;;;;;;;14.83;100.00;99973.43;5032724;57;1138849;-80
2023/03/22 15:24:37;;;;;;;6.30;5.30;;;;;;;14.84;100.00;99967.95;5019611;56;1138876;-78
2023/03/22 15:29:44;;;;;;;11.53;5.40;;;;;;;14.84;100.00;99956.47;5013216;57;1138744;-77
2023/03/22 15:34:53;;;;;;;7.03;5.40;;;;;;;14.84;100.00;99951.14;5012998;57;1141135;-80
2023/03/22 15:40:00;;;;;;;30.87;17.23;;;;;;;14.83;100.00;99945.48;5036957;56;1138991;-77
2023/03/22 15:45:21;;;;;;;8.20;5.60;;;;;;;14.81;100.00;99947.00;4945768;58;1143068;-76
2023/03/22 15:50:27;;;;;;;11.17;6.37;;;;;;;14.81;100.00;99955.48;4935169;58;1138732;-75
2023/03/22 15:55:42;;;;;;;28.80;10.87;;;;;;;14.79;100.00;99952.98;5003188;57;1140784;-78
2023/03/22 16:00:49;;;;;;;8.70;5.43;;;;;;;14.77;100.00;99946.97;4860052;59;1142876;-82
2023/03/22 16:05:55;;;;;;;26.53;10.67;;;;;;;14.75;100.00;99951.62;4873040;58;1138736;-78
2023/03/22 16:11:02;;;;;;;39.12;14.04;;;;;;;14.74;100.00;99948.13;4969138;57;1147947;-77
2023/03/22 16:16:15;;;;;;;20.25;7.83;;;;;;;14.70;100.00;99955.24;4956380;57;1142940;-76
2023/03/22 16:21:29;;;;;;;11.60;5.17;;;;;;;14.67;100.00;99947.57;4871788;58;1140900;-76
2023/03/22 16:26:35;;;;;;;6.73;4.60;;;;;;;14.64;100.00;99951.41;4877897;58;1140899;-80
2023/03/22 16:31:41;;;;;;;11.67;6.63;;;;;;;14.62;100.00;99952.55;4804356;59;1138783;-75
2023/03/22 16:36:47;;;;;;;20.67;8.23;;;;;;;14.59;100.00;99950.20;4900593;57;1140723;-80
2023/03/22 16:41:54;;;;;;;11.93;5.17;;;;;;;14.59;100.00;99955.03;4900813;58;1140798;-77
2023/03/22 16:47:01;;;;;;;18.83;7.10;;;;;;;14.59;100.00;99954.20;4920828;57;1141065;-80
2023/03/22 16:52:07;;;;;;;19.85;10.40;;;;;;;14.55;100.00;99956.33;4909231;57;1141013;-74
2023/03/22 16:57:22;;;;;;;20.43;11.68;;;;;;;14.53;100.00;99952.16;4866627;57;1143031;-76
2023/03/22 17:02:38;;;;;;;26.90;16.10;;;;;;;14.38;100.00;99956.70;5028239;57;1142965;-79
2023/03/22 17:07:43;;;;;;;19.30;12.80;;;;;;;14.38;100.00;99956.70;4980009;57;1142978;-78
2023/03/22 17:12:49;;;;;;;16.37;7.53;;;;;;;14.30;100.00;99952.67;4949377;57;1143100;-76
2023/03/22 17:17:55;;;;;;;12.05;8.08;;;;;;;14.22;100.00;99946.45;4977846;57;1140912;-75
2023/03/22 17:23:05;;;;;;;12.33;5.33;;;;;;;14.15;100.00;99946.75;4960673;57;1140923;-76
2023/03/22 17:28:13;;;;;;;14.73;5.77;;;;;;;14.06;100.00;99947.17;4950454;57;1140916;-76
2023/03/22 17:33:19;;;;;;;8.40;4.87;;;;;;;13.97;100.00;99945.45;4895253;58;1140860;-80
2023/03/22 17:38:24;;;;;;;46.47;18.30;;;;;;;13.88;100.00;99938.42;4959899;58;1138629;-77
2023/03/22 17:43:30;;;;;;;46.97;16.30;;;;;;;13.80;100.00;99943.16;5012622;57;1142934;-77
2023/03/22 17:48:36;;;;;;;132.67;50.50;;;;;;;13.75;100.00;99941.97;5032510;57;1143058;-76
2023/03/22 17:53:42;;;;;;;88.40;33.30;;;;;;;13.73;100.00;99944.77;4879486;57;1145161;-76
2023/03/22 17:58:48;;;;;;;28.27;13.78;;;;;;;13.73;100.00;99941.63;4907274;57;1142950;-75
2023/03/22 18:03:54;;;;;;;45.70;20.60;;;;;;;13.74;100.00;99950.44;5037802;56;1142963;-78
2023/03/22 18:08:59;;;;;;;85.47;35.57;;;;;;;13.72;100.00;99949.75;5047632;56;1143122;-77
2023/03/22 18:14:06;;;;;;;63.50;28.00;;;;;;;13.71;100.00;99963.53;5040224;56;1143024;-75
2023/03/22 18:19:11;;;;;;;34.65;18.27;;;;;;;13.63;100.00;99959.95;5094999;56;1143007;-76
2023/03/22 18:24:17;;;;;;;42.00;19.35;;;;;;;13.56;100.00;99963.72;5064430;56;1143014;-76
2023/03/22 18:29:23;;;;;;;38.93;19.50;;;;;;;13.50;100.00;99962.15;4959298;58;1142982;-75
2023/03/22 18:34:28;;;;;;;62.20;27.57;;;;;;;13.39;100.00;99956.57;5052643;57;1142990;-74
2023/03/22 18:39:35;;;;;;;21.90;9.63;;;;;;;13.22;100.00;99960.04;4977298;57;1142877;-79
2023/03/22 18:44:41;;;;;;;22.93;11.73;;;;;;;12.99;100.00;99957.75;4902882;58;1140945;-75
2023/03/22 18:49:47;;;;;;;19.73;11.55;;;;;;;12.91;100.00;99949.70;4990484;57;1142938;-74
2023/03/22 18:54:52;;;;;;;47.60;22.60;;;;;;;12.89;100.00;99943.70;5060489;57;1142912;-77
2023/03/22 18:59:58;;;;;;;54.50;26.07;;;;;;;12.89;100.00;99947.69;5040848;57;1142873;-80
2023/03/22 19:05:05;;;;;;;48.13;23.37;;;;;;;12.79;100.00;99946.91;5059907;57;1142964;-76
2023/03/22 19:10:12;;;;;;;47.70;24.05;;;;;;;12.75;100.00;99946.85;5032099;57;1142814;-76
2023/03/22 19:15:18;;;;;;;48.05;24.02;;;;;;;12.68;100.00;99943.09;5024003;57;1143011;-76
2023/03/22 19:20:24;;;;;;;58.10;23.73;;;;;;;12.60;100.00;99943.00;4922846;58;1142918;-78
2023/03/22 19:25:29;;;;;;;60.87;24.67;;;;;;;12.45;100.00;99943.97;5081837;56;1143094;-78
2023/03/22 19:30:35;;;;;;;66.87;29.23;;;;;;;12.38;100.00;99943.35;5096491;56;1142880;-75
2023/03/22 19:35:46;;;;;;;108.80;41.27;;;;;;;12.36;100.00;99940.03;4981338;57;1142982;-76
2023/03/22 19:41:06;;;;;;;375.93;166.40;;;;;;;12.21;100.00;99939.17;4951664;57;1145047;-80
2023/03/22 19:46:09;;;;;;;262.73;120.30;;;;;;;12.00;100.00;99931.88;5094405;56;1147320;-78
2023/03/22 19:51:16;;;;;;;202.95;90.53;;;;;;;11.94;100.00;99936.41;5050135;56;1147067;-77
2023/03/22 19:56:21;;;;;;;132.03;52.20;;;;;;;11.90;100.00;99935.89;5067088;56;1145032;-78
2023/03/22 20:01:27;;;;;;;120.40;51.67;;;;;;;11.89;100.00;99939.51;5052215;56;1145037;-76
2023/03/22 20:06:33;;;;;;;438.87;227.60;;;;;;;11.90;100.00;99943.00;5032927;56;1145323;-75
2023/03/22 20:11:39;;;;;;;161.73;79.07;;;;;;;11.90;100.00;99947.81;5032571;56;1147084;-82
2023/03/22 20:16:45;;;;;;;66.80;35.57;;;;;;;11.86;100.00;99946.41;4985793;56;1145039;-78
2023/03/22 20:21:50;;;;;;;44.87;23.37;;;;;;;11.76;100.00;99948.73;4977052;57;1142835;-75
2023/03/22 20:26:56;;;;;;;34.23;17.50;;;;;;;11.62;100.00;99948.12;4951636;57;1142885;-81
2023/03/22 20:32:02;;;;;;;41.07;18.00;;;;;;;11.52;100.00;99944.64;5004482;56;1143105;-76
2023/03/22 20:37:08;;;;;;;26.53;14.57;;;;;;;11.49;100.00;99946.23;5048795;56;1143138;-79
2023/03/22 20:42:14;;;;;;;26.62;15.38;;;;;;;11.50;100.00;99940.45;5052718;56;1142954;-77
2023/03/22 20:47:20;;;;;;;33.77;17.17;;;;;;;11.51;100.00;99929.73;5033320;56;1144228;-80
2023/03/22 20:52:26;;;;;;;45.40;24.33;;;;;;;11.50;100.00;99934.67;5052944;56;1142977;-78
2023/03/22 20:57:31;;;;;;;24.40;15.37;;;;;;;11.48;100.00;99933.13;5032893;56;1143111;-80
2023/03/22 21:02:37;;;;;;;28.80;14.87;;;;;;;11.44;100.00;99923.33;5028706;56;1142942;-76
2023/03/22 21:07:44;;;;;;;28.13;14.70;;;;;;;11.46;100.00;99926.65;5028407;56;1142959;-77
2023/03/22 21:12:50;;;;;;;28.20;12.67;;;;;;;11.47;100.00;99923.02;5021257;56;1143293;-75
2023/03/22 21:17:56;;;;;;;25.43;15.07;;;;;;;11.47;100.00;99922.19;5009841;56;1143065;-79
2023/03/22 21:23:01;;;;;;;31.23;14.67;;;;;;;11.42;100.00;99917.82;4958219;57;1143144;-82
2023/03/22 21:28:09;;;;;;;22.20;11.70;;;;;;;11.38;100.00;99916.42;5015112;56;1143084;-78
2023/03/22 21:33:14;;;;;;;32.45;12.07;;;;;;;11.35;100.00;99909.58;5032859;56;1143004;-78
2023/03/22 21:38:21;;;;;;;19.57;12.17;;;;;;;11.39;100.00;99907.50;5087371;56;1142980;-78
2023/03/22 21:43:30;;;;;;;26.70;12.43;;;;;;;11.40;100.00;99907.85;5138197;56;1143144;-82
2023/03/22 21:48:41;;;;;;;68.37;26.03;;;;;;;11.37;100.00;99901.50;5118263;56;1143141;-80
2023/03/22 21:53:46;;;;;;;72.63;25.53;;;;;;;11.32;100.00;99899.75;5106022;56;1143175;-79
2023/03/22 21:58:52;;;;;;;122.00;38.77;;;;;;;11.28;100.00;99897.89;5106245;56;1143032;-75
2023/03/22 22:03:58;;;;;;;63.70;22.00;;;;;;;11.25;100.00;99892.87;5114412;56;1145185;-81
2023/03/22 22:09:04;;;;;;;60.33;22.93;;;;;;;11.20;100.00;99893.76;5101036;56;1142885;-78
2023/03/22 22:14:10;;;;;;;78.50;26.33;;;;;;;11.13;100.00;99897.95;5100848;56;1142883;-75
2023/03/22 22:19:16;;;;;;;116.93;38.47;;;;;;;11.11;100.00;99898.08;5092877;56;1142991;-74
2023/03/22 22:24:21;;;;;;;47.07;18.60;;;;;;;11.11;100.00;99898.57;5121205;56;1145211;-76
2023/03/22 22:29:27;;;;;;;115.13;48.53;;;;;;;11.09;100.00;99898.70;5106631;56;1142912;-81
2023/03/22 22:34:33;;;;;;;97.47;41.60;;;;;;;11.06;100.00;99905.59;5126566;56;1145110;-74
2023/03/22 22:39:39;;;;;;;67.90;30.37;;;;;;;11.01;100.00;99913.09;5090184;56;1143415;-78
2023/03/22 22:44:45;;;;;;;56.07;22.63;;;;;;;11.01;100.00;99913.57;5092171;56;1142993;-80
2023/03/22 22:49:50;;;;;;;83.42;35.84;;;;;;;10.99;100.00;99907.13;5049781;56;1143087;-79
2023/03/22 22:54:56;;;;;;;75.43;27.80;;;;;;;10.99;100.00;99905.80;5123988;56;1143454;-80
2023/03/22 23:00:03;;;;;;;56.58;21.20;;;;;;;10.97;100.00;99898.97;5071009;56;1143137;-75